Time;durP1;ratioP1;P1;durP2;ratioP2;P2;SDS_P1;SDS_P2;PMS_P1;PMS_P2;Temp;Humidity;BMP_temperature;BMP_pressure;BME280_temperature;BME280_humidity;BME280_pressure;Samples;Min_cycle;Max_cycle;Signal;HPM_P1;HPM_P2
2023/01/03 00:01:47;;;;;;;13.00;5.27;;;;;;;;;;6282591;22;20150;-86
2023/01/03 00:04:32;;;;;;;9.13;4.47;;;;;;;;;;6283198;22;20077;-86
2023/01/03 00:07:32;;;;;;;12.50;4.60;;;;;;;;;;6306589;22;20018;-86
2023/01/03 00:10:16;;;;;;;11.33;4.40;;;;;;;;;;6287168;22;20126;-85
2023/01/03 00:13:01;;;;;;;10.47;4.53;;;;;;;;;;6283554;22;20017;-86
2023/01/03 00:15:46;;;;;;;10.97;4.77;;;;;;;;;;6305956;22;20441;-86
2023/01/03 00:18:30;;;;;;;18.67;4.77;;;;;;;;;;6306288;22;20018;-87
2023/01/03 00:21:15;;;;;;;12.33;6.10;;;;;;;;;;6283653;22;20023;-86
2023/01/03 00:23:59;;;;;;;10.57;4.00;;;;;;;;;;6283513;22;20019;-86
2023/01/03 00:26:44;;;;;;;13.87;4.13;;;;;;;;;;6261590;22;20457;-86
2023/01/03 00:29:29;;;;;;;14.70;5.60;;;;;;;;;;6306368;22;20041;-86
2023/01/03 00:32:14;;;;;;;13.37;4.50;;;;;;;;;;6262235;22;20050;-86
2023/01/03 00:34:58;;;;;;;13.87;4.10;;;;;;;;;;6308613;22;20094;-86
2023/01/03 00:37:43;;;;;;;10.53;3.93;;;;;;;;;;6308111;22;20098;-86
2023/01/03 00:40:27;;;;;;;13.13;4.37;;;;;;;;;;6308419;22;20026;-86
2023/01/03 00:43:30;;;;;;;14.30;4.17;;;;;;;;;;6285436;22;20066;-86
2023/01/03 00:46:15;;;;;;;9.47;4.37;;;;;;;;;;6308732;22;20449;-86
2023/01/03 00:49:00;;;;;;;10.13;5.17;;;;;;;;;;6285220;22;20018;-86
2023/01/03 00:51:45;;;;;;;9.50;4.40;;;;;;;;;;6284590;22;20018;-87
2023/01/03 00:54:30;;;;;;;12.27;4.43;;;;;;;;;;6308778;22;20057;-86
2023/01/03 00:57:15;;;;;;;12.90;4.50;;;;;;;;;;6308090;22;20014;-86
2023/01/03 00:59:59;;;;;;;9.33;4.63;;;;;;;;;;6307875;22;20345;-86
2023/01/03 01:02:44;;;;;;;10.73;4.27;;;;;;;;;;6307922;22;20030;-86
2023/01/03 01:05:29;;;;;;;12.63;4.50;;;;;;;;;;6285275;22;20061;-86
2023/01/03 01:08:13;;;;;;;10.13;4.30;;;;;;;;;;6263725;22;20014;-86
2023/01/03 01:11:01;;;;;;;15.80;5.03;;;;;;;;;;6284653;22;20038;-86
2023/01/03 01:13:46;;;;;;;15.40;6.43;;;;;;;;;;6307667;22;20057;-87
2023/01/03 01:16:32;;;;;;;8.23;4.60;;;;;;;;;;6307976;22;20053;-86
2023/01/03 01:19:17;;;;;;;9.47;5.30;;;;;;;;;;6284923;22;20512;-86
2023/01/03 01:22:02;;;;;;;12.20;5.67;;;;;;;;;;6307701;22;20091;-86
2023/01/03 01:24:47;;;;;;;12.77;4.67;;;;;;;;;;6262912;22;20385;-86
2023/01/03 01:27:31;;;;;;;10.07;5.27;;;;;;;;;;6307894;22;20011;-88
2023/01/03 01:30:16;;;;;;;10.60;4.70;;;;;;;;;;6308048;22;20033;-86
2023/01/03 01:33:00;;;;;;;11.70;5.07;;;;;;;;;;6307435;22;20488;-85
2023/01/03 01:35:45;;;;;;;11.40;5.63;;;;;;;;;;6262930;22;20065;-86
2023/01/03 01:38:29;;;;;;;12.80;5.97;;;;;;;;;;6308179;22;20065;-86
2023/01/03 01:44:36;;;;;;;12.70;5.60;;;;;;;;;;6308009;22;20085;-86
2023/01/03 01:44:40;;;;;;;15.77;5.70;;;;;;;;;;6307919;22;20073;-86
2023/01/03 01:47:33;;;;;;;;;;;3.40;99.90;;;;;;6308476;22;20014;-86
2023/01/03 01:50:18;;;;;;;10.97;5.40;;;;;;;;;;6307873;22;20249;-86
2023/01/03 01:53:06;;;;;;;15.30;6.17;;;;;;;;;;6307144;22;20069;-86
2023/01/03 01:55:57;;;;;;;19.53;6.10;;;3.30;99.90;;;;;;6307166;22;20027;-86
2023/01/03 01:58:42;;;;;;;12.77;6.37;;;;;;;;;;6307796;22;20026;-86
2023/01/03 02:01:27;;;;;;;11.90;6.50;;;;;;;;;;6307775;22;20018;-86
2023/01/03 02:04:24;;;;;;;12.63;6.77;;;;;;;;;;6284787;22;20495;-86
2023/01/03 02:07:08;;;;;;;14.63;7.13;;;;;;;;;;6307105;22;20064;-86
2023/01/03 02:09:56;;;;;;;14.77;6.70;;;3.20;99.90;;;;;;6283907;22;20049;-86
2023/01/03 02:15:47;;;;;;;21.53;7.30;;;;;;;;;;6307251;22;20014;-90
2023/01/03 02:18:31;;;;;;;17.93;8.53;;;;;;;;;;6307837;22;20386;-86
2023/01/03 02:21:47;;;;;;;15.00;7.90;;;3.20;99.90;;;;;;6284483;22;20038;-86
2023/01/03 02:24:43;;;;;;;16.27;8.10;;;;;;;;;;6307785;22;20015;-86
2023/01/03 02:27:56;;;;;;;16.97;8.50;;;3.30;99.90;;;;;;6307576;22;20010;-86
2023/01/03 02:31:10;;;;;;;21.13;9.23;;;;;;;;;;6307287;22;20091;-86
2023/01/03 02:33:59;;;;;;;20.33;9.00;;;;;;;;;;6294140;22;20384;-86
2023/01/03 02:36:52;;;;;;;17.97;8.40;;;;;;;;;;6307625;22;20014;-85
2023/01/03 02:39:43;;;;;;;11.55;6.22;;;;;;;;;;6307319;22;20042;-86
2023/01/03 02:45:45;;;;;;;22.63;8.83;;;;;;;;;;6307302;22;20056;-86
2023/01/03 02:48:35;;;;;;;21.30;9.30;;;;;;;;;;6307371;22;20015;-86
2023/01/03 02:51:34;;;;;;;20.43;10.80;;;3.30;99.90;;;;;;6284329;22;20042;-86
2023/01/03 02:54:21;;;;;;;18.47;9.90;;;;;;;;;;6307258;22;20021;-86
2023/01/03 02:57:13;;;;;;;17.83;9.73;;;3.30;99.90;;;;;;6283144;22;20018;-86
2023/01/03 03:00:01;;;;;;;17.77;10.77;;;;;;;;;;6306599;22;20066;-87
2023/01/03 03:02:55;;;;;;;24.77;10.60;;;;;;;;;;6305904;22;20058;-85
2023/01/03 03:05:52;;;;;;;23.15;11.65;;;;;;;;;;6283942;22;20095;-86
2023/01/03 03:08:37;;;;;;;26.00;11.43;;;;;;;;;;6307035;22;20015;-86
2023/01/03 03:14:49;;;;;;;26.27;11.38;;;;;;;;;;6307321;22;20545;-86
2023/01/03 03:17:34;;;;;;;23.70;11.13;;;;;;;;;;6306878;22;20014;-86
2023/01/03 03:26:37;;;;;;;26.90;11.40;;;;;;;;;;6306832;22;20017;-86
2023/01/03 03:29:22;;;;;;;25.27;11.90;;;;;;;;;;6306877;22;20014;-86
2023/01/03 03:32:06;;;;;;;26.67;11.60;;;;;;;;;;6261578;22;20018;-86
2023/01/03 03:34:51;;;;;;;29.50;11.90;;;;;;;;;;6283838;22;20018;-87
2023/01/03 03:37:38;;;;;;;23.43;12.47;;;3.00;99.90;;;;;;6283737;22;20103;-86
2023/01/03 03:46:41;;;;;;;23.20;11.67;;;;;;;;;;6306928;22;20117;-86
2023/01/03 03:49:38;;;;;;;27.23;11.77;;;;;;;;;;6306808;22;20030;-86
2023/01/03 03:52:27;;;;;;;25.17;11.93;;;;;;;;;;6306006;22;20010;-86
2023/01/03 03:55:24;;;;;;;34.10;15.03;;;;;;;;;;6283281;22;20065;-86
2023/01/03 03:58:14;;;;;;;26.40;13.53;;;;;;;;;;6283341;22;20010;-86
2023/01/03 04:01:00;;;;;;;27.90;13.57;;;;;;;;;;6306705;22;20345;-86
2023/01/03 04:03:45;;;;;;;30.50;13.03;;;;;;;;;;6283606;22;20038;-87
2023/01/03 04:06:50;;;;;;;31.30;14.00;;;;;;;;;;6283369;22;20026;-86
2023/01/03 04:09:35;;;;;;;32.43;14.73;;;;;;;;;;6308902;22;20123;-86
2023/01/03 04:12:19;;;;;;;35.23;14.10;;;;;;;;;;6284971;22;20013;-86
2023/01/03 04:15:05;;;;;;;29.63;14.23;;;;;;;;;;6308588;22;20013;-90
2023/01/03 04:17:50;;;;;;;33.17;15.07;;;;;;;;;;6308804;22;20011;-86
2023/01/03 04:20:34;;;;;;;32.73;15.37;;;;;;;;;;6285968;22;20345;-86
2023/01/03 04:23:19;;;;;;;29.33;14.93;;;;;;;;;;6308231;22;20069;-86
2023/01/03 04:26:03;;;;;;;41.57;16.63;;;;;;;;;;6308599;22;20015;-87
2023/01/03 04:28:48;;;;;;;39.93;17.77;;;;;;;;;;6308572;22;20014;-86
2023/01/03 04:31:33;;;;;;;30.17;15.10;;;;;;;;;;6285484;22;20018;-86
2023/01/03 04:34:17;;;;;;;34.30;16.47;;;;;;;;;;6308196;22;20069;-86
2023/01/03 04:37:02;;;;;;;28.93;14.60;;;;;;;;;;6308665;22;20533;-86
2023/01/03 04:39:46;;;;;;;33.40;16.30;;;;;;;;;;6285497;22;20064;-86
2023/01/03 04:45:35;;;;;;;32.87;16.63;;;;;;;;;;6308830;22;20464;-86
2023/01/03 04:48:19;;;;;;;37.57;16.67;;;;;;;;;;6284720;22;20069;-86
2023/01/03 04:51:04;;;;;;;37.03;17.13;;;;;;;;;;6285512;22;20021;-86
2023/01/03 04:53:48;;;;;;;35.60;17.40;;;;;;;;;;6285124;22;20322;-86
2023/01/03 04:56:34;;;;;;;36.00;17.27;;;;;;;;;;6263452;22;20058;-86
2023/01/03 04:59:19;;;;;;;35.47;17.83;;;;;;;;;;6284607;22;20057;-86
2023/01/03 05:02:03;;;;;;;36.77;17.03;;;;;;;;;;6284976;22;20049;-86
2023/01/03 05:04:48;;;;;;;38.80;17.73;;;;;;;;;;6263797;22;20018;-87
2023/01/03 05:07:33;;;;;;;39.53;17.40;;;;;;;;;;6307871;22;20030;-86
2023/01/03 05:10:18;;;;;;;40.00;17.10;;;;;;;;;;6284481;22;20034;-86
2023/01/03 05:13:02;;;;;;;40.53;17.80;;;;;;;;;;6285301;22;20065;-86
2023/01/03 05:15:47;;;;;;;42.93;18.30;;;;;;;;;;6285025;22;20449;-86
2023/01/03 05:18:31;;;;;;;41.17;17.77;;;;;;;;;;6307302;22;20421;-86
2023/01/03 05:27:23;;;;;;;35.10;18.30;;;;;;;;;;6288878;22;20072;-86
2023/01/03 05:30:08;;;;;;;40.27;18.47;;;;;;;;;;6285248;22;20050;-87
2023/01/03 05:32:53;;;;;;;38.87;18.80;;;;;;;;;;6285136;22;20417;-86
2023/01/03 05:35:37;;;;;;;35.83;17.80;;;;;;;;;;6262952;22;20065;-86
2023/01/03 05:38:22;;;;;;;36.67;19.00;;;;;;;;;;6307522;22;20030;-86
2023/01/03 05:41:07;;;;;;;38.87;19.17;;;;;;;;;;6284886;22;20065;-87
2023/01/03 05:43:51;;;;;;;40.67;19.00;;;;;;;;;;6285059;22;20030;-86
2023/01/03 05:46:36;;;;;;;35.40;18.77;;;;;;;;;;6284454;22;20561;-86
2023/01/03 05:49:20;;;;;;;37.07;17.93;;;;;;;;;;6284529;22;20101;-87
2023/01/03 05:52:05;;;;;;;37.57;17.67;;;;;;;;;;6284720;22;20018;-86
2023/01/03 05:54:49;;;;;;;33.97;16.80;;;;;;;;;;6307913;22;20141;-86
2023/01/03 05:57:34;;;;;;;36.63;16.97;;;;;;;;;;6284128;22;20014;-86
2023/01/03 06:00:19;;;;;;;34.00;16.77;;;;;;;;;;6307176;22;20081;-86
2023/01/03 06:03:04;;;;;;;32.73;17.07;;;;;;;;;;6307567;22;20064;-86
2023/01/03 06:05:48;;;;;;;37.57;17.83;;;;;;;;;;6307842;22;20384;-86
2023/01/03 06:08:33;;;;;;;31.07;17.97;;;;;;;;;;6306964;22;20015;-86
2023/01/03 06:11:18;;;;;;;30.63;16.57;;;;;;;;;;6284767;22;20022;-86
2023/01/03 06:14:02;;;;;;;39.77;17.80;;;;;;;;;;6283982;22;20011;-86
2023/01/03 06:19:51;;;;;;;31.93;16.03;;;;;;;;;;6307112;22;20026;-87
2023/01/03 06:22:35;;;;;;;36.17;17.83;;;;;;;;;;6306192;22;20017;-86
2023/01/03 06:25:20;;;;;;;34.90;17.27;;;;;;;;;;6284070;22;20087;-85
2023/01/03 06:28:04;;;;;;;34.90;16.57;;;;;;;;;;6283830;22;20041;-86
2023/01/03 06:30:49;;;;;;;33.00;18.30;;;;;;;;;;6283444;22;20018;-86
2023/01/03 06:33:33;;;;;;;36.20;18.33;;;;;;;;;;6302968;22;20066;-88
2023/01/03 06:36:19;;;;;;;38.23;17.23;;;;;;;;;;6284379;22;20014;-87
2023/01/03 06:39:04;;;;;;;35.70;17.30;;;;;;;;;;6284323;22;20080;-87
2023/01/03 06:41:48;;;;;;;33.97;17.00;;;;;;;;;;6283690;22;20021;-87
2023/01/03 06:44:33;;;;;;;35.37;16.63;;;;;;;;;;6306759;22;20015;-86
2023/01/03 06:53:25;;;;;;;29.35;15.35;;;;;;;;;;6306763;22;20038;-87
2023/01/03 06:56:10;;;;;;;33.80;16.23;;;;;;;;;;6283965;22;20101;-89
2023/01/03 06:58:55;;;;;;;39.20;15.97;;;;;;;;;;6306955;22;20066;-86
2023/01/03 07:01:39;;;;;;;35.97;17.13;;;;;;;;;;6283564;22;20464;-87
2023/01/03 07:04:25;;;;;;;35.73;16.63;;;;;;;;;;6306968;22;20030;-87
2023/01/03 07:07:09;;;;;;;36.63;17.10;;;;;;;;;;6262262;22;20088;-88
2023/01/03 07:09:54;;;;;;;36.27;17.90;;;;;;;;;;6306067;22;20022;-89
2023/01/03 07:15:45;;;;;;;31.77;15.53;;;;;;;;;;6304477;22;20101;-88
2023/01/03 07:18:31;;;;;;;36.30;17.47;;;;;;;;;;6281938;22;20015;-87
2023/01/03 07:21:15;;;;;;;36.47;16.20;;;;;;;;;;6281138;22;20021;-88
2023/01/03 07:24:00;;;;;;;34.13;17.33;;;;;;;;;;6302786;22;20030;-88
2023/01/03 07:26:45;;;;;;;41.97;18.23;;;;;;;;;;6281492;22;20386;-87
2023/01/03 07:29:29;;;;;;;39.50;20.20;;;;;;;;;;6283800;22;20018;-87
2023/01/03 07:32:14;;;;;;;39.23;18.67;;;;;;;;;;6280223;22;20017;-87
2023/01/03 07:34:59;;;;;;;39.13;18.37;;;;;;;;;;6260668;22;20018;-87
2023/01/03 07:37:44;;;;;;;31.63;18.00;;;;;;;;;;6279442;22;20456;-88
2023/01/03 07:40:28;;;;;;;42.63;19.23;;;;;;;;;;6280150;22;20022;-87
2023/01/03 07:46:21;;;;;;;38.60;19.77;;;;;;;;;;6288276;22;20021;-87
2023/01/03 07:49:08;;;;;;;38.83;20.23;;;;;;;;;;6283829;22;20014;-87
2023/01/03 07:51:52;;;;;;;43.03;20.70;;;;;;;;;;6261237;22;20056;-87
2023/01/03 07:54:37;;;;;;;37.17;19.47;;;;;;;;;;6261380;22;20381;-87
2023/01/03 07:57:21;;;;;;;46.97;21.83;;;;;;;;;;6283616;22;20014;-87
2023/01/03 08:00:06;;;;;;;38.27;19.57;;;;;;;;;;6261973;22;20026;-87
2023/01/03 08:02:54;;;;;;;39.63;21.43;;;;;;;;;;6306069;22;20061;-87
2023/01/03 08:05:39;;;;;;;44.57;21.33;;;;;;;;;;6282907;22;20010;-90
2023/01/03 08:08:23;;;;;;;47.90;21.03;;;;;;;;;;6306747;22;20014;-87
2023/01/03 08:14:14;;;;;;;44.47;22.40;;;;;;;;;;6306615;22;20034;-88
2023/01/03 08:16:59;;;;;;;42.20;22.83;;;;;;;;;;6306082;22;20145;-86
2023/01/03 08:19:43;;;;;;;34.53;19.30;;;;;;;;;;6282855;22;20022;-87
2023/01/03 08:22:28;;;;;;;37.73;18.93;;;;;;;;;;6306035;22;20076;-87
2023/01/03 08:25:12;;;;;;;38.13;18.20;;;;;;;;;;6283498;22;20445;-88
2023/01/03 08:27:57;;;;;;;38.97;19.13;;;;;;;;;;6305795;22;20010;-88
2023/01/03 08:30:46;;;;;;;41.20;19.33;;;;;;;;;;6261349;22;20022;-91
2023/01/03 08:33:33;;;;;;;47.63;19.60;;;;;;;;;;6283310;22;20013;-88
2023/01/03 08:36:18;;;;;;;46.70;16.97;;;;;;;;;;6283369;22;20057;-88
2023/01/03 08:39:08;;;;;;;55.33;16.67;;;;;;;;;;6283052;22;20018;-88
2023/01/03 08:41:58;;;;;;;60.97;17.33;;;;;;;;;;6282657;22;20065;-87
2023/01/03 08:44:43;;;;;;;94.43;17.73;;;;;;;;;;6306128;22;20010;-91
2023/01/03 08:47:28;;;;;;;70.90;17.60;;;;;;;;;;6283346;22;20025;-89
2023/01/03 08:50:14;;;;;;;78.37;19.30;;;;;;;;;;6306114;22;20017;-90
2023/01/03 08:52:59;;;;;;;92.63;19.50;;;;;;;;;;6282622;22;20026;-88
2023/01/03 08:55:44;;;;;;;70.50;20.20;;;;;;;;;;6263423;22;20026;-92
2023/01/03 08:58:28;;;;;;;109.17;22.70;;;;;;;;;;6285131;22;20027;-88
2023/01/03 09:01:13;;;;;;;148.57;23.20;;;;;;;;;;6263597;22;20022;-87
2023/01/03 09:03:57;;;;;;;106.33;23.17;;;;;;;;;;6284487;22;20065;-89
2023/01/03 09:06:41;;;;;;;127.90;25.43;;;;;;;;;;6285135;22;20491;-89
2023/01/03 09:09:26;;;;;;;166.83;27.57;;;;;;;;;;6284803;22;20010;-89
2023/01/03 09:12:11;;;;;;;135.03;25.10;;;;;;;;;;6284545;22;20057;-89
2023/01/03 09:14:55;;;;;;;137.83;25.07;;;;;;;;;;6284343;22;20077;-89
2023/01/03 09:17:44;;;;;;;155.17;27.73;;;;;;;;;;6284009;22;20513;-87
2023/01/03 09:20:28;;;;;;;217.23;31.17;;;;;;;;;;6262098;22;20396;-87
2023/01/03 09:23:13;;;;;;;195.70;28.93;;;;;;;;;;6284296;22;20018;-89
2023/01/03 09:25:57;;;;;;;173.67;31.17;;;;;;;;;;6283933;22;20476;-89
2023/01/03 09:28:42;;;;;;;221.23;32.10;;;;;;;;;;6284404;22;20015;-88
2023/01/03 09:31:27;;;;;;;289.27;36.57;;;;;;;;;;6284390;22;20046;-88
2023/01/03 09:34:14;;;;;;;168.10;28.93;;;;;;;;;;6284309;22;20389;-88
2023/01/03 09:36:59;;;;;;;337.53;41.50;;;;;;;;;;6307307;22;20049;-88
2023/01/03 09:39:44;;;;;;;213.67;31.73;;;;;;;;;;6284597;22;20019;-88
2023/01/03 09:45:34;;;;;;;244.13;33.35;;;2.70;99.90;;;;;;6307616;22;20091;-89
2023/01/03 09:48:22;;;;;;;146.00;28.07;;;;;;;;;;6262899;22;20044;-90
2023/01/03 10:04:04;;;;;;;165.13;33.70;;;;;;;;;;6303867;22;20061;-89
2023/01/03 10:07:01;;;;;;;210.50;40.27;;;;;;;;;;6283003;22;20072;-89
2023/01/03 10:09:51;;;;;;;177.20;37.37;;;;;;;;;;6284318;22;20022;-89
2023/01/03 10:12:39;;;;;;;196.40;38.53;;;;;;;;;;6307262;22;20102;-88
2023/01/03 10:15:38;;;;;;;176.13;40.60;;;;;;;;;;6307628;22;20038;-88
2023/01/03 10:18:38;;;;;;;176.93;38.27;;;;;;;;;;6284781;22;20100;-90
2023/01/03 10:21:26;;;;;;;143.77;37.03;;;;;;;;;;6284500;22;20018;-88
2023/01/03 10:24:21;;;;;;;153.27;36.57;;;3.90;99.90;;;;;;6306875;22;20014;-87
2023/01/03 10:27:24;;;;;;;147.57;37.00;;;;;;;;;;6283682;22;20065;-87
2023/01/03 10:30:12;;;;;;;135.23;38.43;;;;;;;;;;6283983;22;20385;-87
2023/01/03 10:32:57;;;;;;;143.90;37.97;;;;;;;;;;6284101;22;20101;-93
2023/01/03 10:35:42;;;;;;;152.40;40.30;;;;;;;;;;6307766;22;20340;-88
2023/01/03 10:38:27;;;;;;;147.23;39.80;;;;;;;;;;6284195;22;20073;-87
2023/01/03 10:41:22;;;;;;;148.40;39.83;;;4.30;99.90;;;;;;6306775;22;20080;-88
2023/01/03 10:44:06;;;;;;;149.93;41.22;;;;;;;;;;6306897;22;20089;-86
2023/01/03 10:46:52;;;;;;;136.70;37.73;;;;;;;;;;6300484;22;20014;-87
2023/01/03 10:49:37;;;;;;;136.83;38.80;;;;;;;;;;6304882;22;20015;-89
2023/01/03 10:52:22;;;;;;;123.60;39.00;;;;;;;;;;6303588;22;20173;-88
2023/01/03 10:55:15;;;;;;;137.23;39.87;;;;;;;;;;6282249;22;20484;-88
2023/01/03 10:58:03;;;;;;;118.17;37.57;;;;;;;;;;6305729;22;20014;-88
2023/01/03 11:00:49;;;;;;;112.23;37.67;;;;;;;;;;6304762;22;20022;-88
2023/01/03 11:03:33;;;;;;;135.03;39.40;;;;;;;;;;6305038;22;20011;-88
2023/01/03 11:06:18;;;;;;;124.30;38.80;;;;;;;;;;6281870;22;20065;-88
2023/01/03 11:09:04;;;;;;;120.83;37.40;;;;;;;;;;6305722;22;20050;-92
2023/01/03 11:11:53;;;;;;;113.73;36.43;;;;;;;;;;6304432;22;20057;-87
2023/01/03 11:14:39;;;;;;;112.77;35.60;;;;;;;;;;6305796;22;20575;-87
2023/01/03 11:17:25;;;;;;;99.03;33.60;;;;;;;;;;6303716;22;20014;-88
2023/01/03 11:20:19;;;;;;;93.90;35.23;;;;;;;;;;6305166;22;20394;-87
2023/01/03 11:23:07;;;;;;;99.13;34.95;;;;;;;;;;6304420;22;20064;-87
2023/01/03 11:26:08;;;;;;;93.43;34.83;;;5.40;99.90;;;;;;6304648;22;20595;-87
2023/01/03 11:29:13;;;;;;;91.17;32.93;;;;;;;;;;6305713;22;20046;-88
2023/01/03 11:32:04;;;;;;;77.33;31.10;;;;;;;;;;6298334;22;20011;-88
2023/01/03 11:35:07;;;;;;;86.90;31.70;;;;;;;;;;6300722;22;20759;-88
2023/01/03 11:37:59;;;;;;;75.10;31.60;;;;;;;;;;6303643;22;20061;-89
2023/01/03 11:41:15;;;;;;;73.20;30.70;;;5.70;99.90;;;;;;6306026;22;20272;-88
2023/01/03 11:43:59;;;;;;;78.70;28.60;;;;;;;;;;6305167;22;20014;-87
2023/01/03 11:46:53;;;;;;;67.47;28.97;;;;;;;;;;6306193;22;20045;-87
2023/01/03 11:49:44;;;;;;;70.35;29.67;;;;;;;;;;6304595;22;20306;-88
2023/01/03 11:52:42;;;;;;;74.67;28.37;;;5.90;99.90;;;;;;6304510;22;20014;-88
2023/01/03 11:55:30;;;;;;;67.83;28.77;;;;;;;;;;6305939;22;20089;-87
2023/01/03 11:58:33;;;;;;;63.37;27.63;;;;;;;;;;6309280;22;20444;-87
2023/01/03 12:01:36;;;;;;;59.72;26.27;;;;;;;;;;6305214;22;20334;-89
2023/01/03 12:04:20;;;;;;;61.33;27.93;;;;;;;;;;6304396;22;20326;-88
2023/01/03 12:07:18;;;;;;;63.13;26.93;;;;;;;;;;6306331;22;20014;-87
2023/01/03 12:10:02;;;;;;;64.40;25.73;;;;;;;;;;6306785;22;20456;-87
2023/01/03 12:12:54;;;;;;;60.30;25.20;;;;;;;;;;6306773;22;20069;-87
2023/01/03 12:15:42;;;;;;;56.10;23.60;;;;;;;;;;6305605;22;20330;-88
2023/01/03 12:18:32;;;;;;;55.65;24.08;;;;;;;;;;6305049;22;20376;-87
2023/01/03 12:21:17;;;;;;;51.83;23.07;;;;;;;;;;6304872;22;20022;-87
2023/01/03 12:24:05;;;;;;;53.47;23.17;;;;;;;;;;6305499;22;20057;-87
2023/01/03 12:26:54;;;;;;;48.70;22.67;;;;;;;;;;6307028;22;20449;-87
2023/01/03 12:29:47;;;;;;;48.77;21.73;;;;;;;;;;6308180;22;20061;-87
2023/01/03 12:32:35;;;;;;;47.65;22.30;;;;;;;;;;6307133;22;20014;-87
2023/01/03 12:35:33;;;;;;;42.45;20.48;;;6.10;99.90;;;;;;6307115;22;20104;-87
2023/01/03 12:38:21;;;;;;;45.80;21.07;;;;;;;;;;6308348;22;20010;-87
2023/01/03 12:41:06;;;;;;;37.05;19.25;;;;;;;;;;6308782;22;20022;-87
2023/01/03 12:43:58;;;;;;;46.97;22.50;;;;;;;;;;6307563;22;20065;-87
2023/01/03 12:46:46;;;;;;;40.00;19.25;;;;;;;;;;6308642;22;20064;-88
2023/01/03 12:49:42;;;;;;;41.63;20.60;;;;;;;;;;6306986;22;20390;-88
2023/01/03 12:52:28;;;;;;;40.83;19.52;;;;;;;;;;6308237;22;20009;-87
2023/01/03 12:55:19;;;;;;;44.85;20.85;;;;;;;;;;6308720;22;20021;-87
2023/01/03 12:58:16;;;;;;;46.72;20.77;;;;;;;;;;6307307;22;20014;-88
2023/01/03 13:01:39;;;;;;;45.90;22.17;;;;;;;;;;6308571;22;20098;-88
2023/01/03 13:04:28;;;;;;;44.95;20.58;;;;;;;;;;6162554;23;20016;-89
2023/01/03 13:07:15;;;;;;;45.28;21.52;;;;;;;;;;6183913;23;20015;-87
2023/01/03 13:10:07;;;;;;;48.87;20.80;;;;;;;;;;6296029;22;20495;-87
2023/01/03 13:12:52;;;;;;;42.75;20.42;;;;;;;;;;6308319;22;20010;-87
2023/01/03 13:15:37;;;;;;;44.95;20.75;;;;;;;;;;6284994;22;20072;-87
2023/01/03 13:18:21;;;;;;;43.05;19.45;;;;;;;;;;6306788;22;20145;-90
2023/01/03 13:21:32;;;;;;;42.47;18.40;;;;;;;;;;6306804;22;20103;-87
2023/01/03 13:24:46;;;;;;;43.50;18.75;;;6.40;99.90;;;;;;6306722;22;20076;-89
2023/01/03 13:27:35;;;;;;;43.00;20.47;;;;;;;;;;6306439;22;20395;-88
2023/01/03 13:30:24;;;;;;;38.50;17.67;;;;;;;;;;6285123;22;20053;-88
2023/01/03 13:33:12;;;;;;;41.50;19.60;;;;;;;;;;6307770;22;20441;-87
2023/01/03 13:35:59;;;;;;;36.45;18.63;;;6.60;99.90;;;;;;6306443;22;20342;-86
2023/01/03 13:38:44;;;;;;;39.97;18.30;;;;;;;;;;6307395;22;20029;-88
2023/01/03 13:41:36;;;;;;;38.05;17.50;;;;;;;;;;6305526;22;20022;-88
2023/01/03 13:44:22;;;;;;;42.83;17.40;;;;;;;;;;6306810;22;20133;-88
2023/01/03 13:47:07;;;;;;;39.17;17.17;;;;;;;;;;6308221;22;20026;-87
2023/01/03 13:49:52;;;;;;;34.28;16.50;;;;;;;;;;6307942;22;20022;-87
2023/01/03 13:52:38;;;;;;;41.42;17.65;;;;;;;;;;6284428;22;20034;-88
2023/01/03 13:55:38;;;;;;;36.83;18.75;;;;;;;;;;6307975;22;20141;-87
2023/01/03 13:58:26;;;;;;;36.05;17.02;;;;;;;;;;6307917;22;20013;-88
2023/01/03 14:01:33;;;;;;;32.08;16.65;;;;;;;;;;6307863;22;20069;-87
2023/01/03 14:04:33;;;;;;;38.33;19.55;;;;;;;;;;6307911;22;20341;-87
2023/01/03 14:07:46;;;;;;;34.28;16.95;;;6.80;99.90;;;;;;6307842;22;20014;-86
2023/01/03 14:10:40;;;;;;;33.75;18.27;;;;;;;;;;6307265;22;20021;-87
2023/01/03 14:13:30;;;;;;;43.28;18.98;;;;;;;;;;6306606;22;20091;-87
2023/01/03 14:16:27;;;;;;;42.90;19.15;;;;;;;;;;6306527;22;20054;-87
2023/01/03 14:19:20;;;;;;;34.53;16.13;;;;;;;;;;6306548;22;20026;-88
2023/01/03 14:22:27;;;;;;;30.10;14.63;;;;;;;;;;6306539;22;20070;-87
2023/01/03 14:25:30;;;;;;;32.88;15.85;;;6.90;99.90;;;;;;6307678;22;20084;-87
2023/01/03 14:28:18;;;;;;;32.58;17.02;;;;;;;;;;6306450;22;20010;-87
2023/01/03 14:31:04;;;;;;;35.80;16.30;;;;;;;;;;6306627;22;20014;-88
2023/01/03 14:33:52;;;;;;;36.05;16.15;;;;;;;;;;6307182;22;20441;-87
2023/01/03 14:36:45;;;;;;;31.95;16.75;;;;;;;;;;6305687;22;20334;-87
2023/01/03 14:39:31;;;;;;;34.67;15.77;;;;;;;;;;6306119;22;20120;-87
2023/01/03 14:42:16;;;;;;;31.48;16.55;;;;;;;;;;6285169;22;20464;-87
2023/01/03 14:45:05;;;;;;;32.95;15.60;;;7.00;99.90;;;;;;6306480;22;20053;-87
2023/01/03 14:47:54;;;;;;;28.42;14.77;;;;;;;;;;6305696;22;20065;-87
2023/01/03 14:50:41;;;;;;;34.00;14.93;;;7.10;99.90;;;;;;6305654;22;20551;-87
2023/01/03 14:53:26;;;;;;;27.33;16.17;;;;;;;;;;6307283;22;20018;-86
2023/01/03 14:56:11;;;;;;;27.02;15.43;;;;;;;;;;6306193;22;20033;-87
2023/01/03 14:58:56;;;;;;;29.30;14.68;;;;;;;;;;6305591;22;20054;-87
2023/01/03 15:01:41;;;;;;;30.10;15.13;;;;;;;;;;6305333;22;20017;-88
2023/01/03 15:04:26;;;;;;;25.55;13.02;;;;;;;;;;6306009;22;20065;-87
2023/01/03 15:07:26;;;;;;;26.60;13.95;;;;;;;;;;6305904;22;20497;-86
2023/01/03 15:10:10;;;;;;;30.95;14.00;;;;;;;;;;6307178;22;20018;-86
2023/01/03 15:12:55;;;;;;;32.47;14.10;;;;;;;;;;6306675;22;20135;-87
2023/01/03 15:15:40;;;;;;;27.95;14.93;;;;;;;;;;6305284;22;20053;-87
2023/01/03 15:18:29;;;;;;;33.75;15.20;;;7.30;99.90;;;;;;6305859;22;20104;-87
2023/01/03 15:21:20;;;;;;;24.48;13.32;;;;;;;;;;6306922;22;20017;-87
2023/01/03 15:24:05;;;;;;;26.13;13.70;;;;;;;;;;6307265;22;20010;-86
2023/01/03 15:26:50;;;;;;;28.70;14.50;;;;;;;;;;6305443;22;20014;-87
2023/01/03 15:29:43;;;;;;;23.23;14.27;;;;;;;;;;6304971;22;20018;-87
2023/01/03 15:32:28;;;;;;;24.65;13.68;;;;;;;;;;6307060;22;20065;-87
2023/01/03 15:35:38;;;;;;;21.90;12.93;;;;;;;;;;6305755;22;20037;-87
2023/01/03 15:38:32;;;;;;;22.85;12.88;;;7.40;99.90;;;;;;6306958;22;20046;-88
2023/01/03 15:44:27;;;;;;;23.95;11.48;;;;;;;;;;6307065;22;19909;-87
2023/01/03 15:47:15;;;;;;;27.45;12.65;;;;;;;;;;6306800;22;20061;-87
2023/01/03 15:50:01;;;;;;;23.42;12.05;;;;;;;;;;6304953;22;20013;-87
2023/01/03 15:52:47;;;;;;;24.85;11.88;;;7.40;99.90;;;;;;6305040;22;20018;-87
2023/01/03 15:55:31;;;;;;;22.77;12.70;;;;;;;;;;6306910;22;20022;-87
2023/01/03 15:58:16;;;;;;;21.50;11.95;;;;;;;;;;6305464;22;20019;-87
2023/01/03 16:01:01;;;;;;;21.48;11.50;;;;;;;;;;6304859;22;20022;-87
2023/01/03 16:03:47;;;;;;;21.10;11.38;;;7.40;99.90;;;;;;6305836;22;20018;-87
2023/01/03 16:06:31;;;;;;;19.20;11.73;;;;;;;;;;6306695;22;20010;-85
2023/01/03 16:09:16;;;;;;;20.55;10.85;;;;;;;;;;6305666;22;20089;-86
2023/01/03 16:12:00;;;;;;;18.17;10.48;;;;;;;;;;6304875;22;20388;-86
2023/01/03 16:14:46;;;;;;;21.40;10.77;;;;;;;;;;6306069;22;20031;-91
2023/01/03 16:17:31;;;;;;;18.63;10.38;;;;;;;;;;6305394;22;20061;-87
2023/01/03 16:20:16;;;;;;;19.75;9.88;;;;;;;;;;6306636;22;20404;-88
2023/01/03 16:23:01;;;;;;;18.60;10.18;;;;;;;;;;6306176;22;20334;-87
2023/01/03 16:25:46;;;;;;;20.60;11.48;;;;;;;;;;6305555;22;20023;-87
2023/01/03 16:28:30;;;;;;;16.30;10.02;;;;;;;;;;6306774;22;20384;-87
2023/01/03 16:31:34;;;;;;;14.02;9.32;;;7.40;99.90;;;;;;6306550;22;20108;-87
2023/01/03 16:34:21;;;;;;;15.85;9.45;;;7.30;99.90;;;;;;6305643;22;20014;-87
2023/01/03 16:37:08;;;;;;;18.25;11.15;;;;;;;;;;6306190;22;20056;-88
2023/01/03 16:39:53;;;;;;;13.15;8.90;;;;;;;;;;6306029;22;20069;-87
2023/01/03 16:42:37;;;;;;;19.52;9.98;;;;;;;;;;6306638;22;20014;-87
2023/01/03 16:45:21;;;;;;;14.77;9.30;;;;;;;;;;6305356;22;20014;-86
2023/01/03 16:48:07;;;;;;;13.55;8.88;;;;;;;;;;6304833;22;20456;-88
2023/01/03 16:50:53;;;;;;;11.65;8.05;;;;;;;;;;6306244;22;20083;-88
2023/01/03 16:53:40;;;;;;;19.90;9.70;;;;;;;;;;6305221;22;20333;-87
2023/01/03 16:56:24;;;;;;;16.15;10.25;;;;;;;;;;6305509;22;20022;-87
2023/01/03 16:59:13;;;;;;;12.65;8.80;;;;;;;;;;6306118;22;20507;-87
2023/01/03 17:01:58;;;;;;;12.98;8.02;;;;;;;;;;6304689;22;20058;-87
2023/01/03 17:04:43;;;;;;;14.63;8.27;;;;;;;;;;6305269;22;20342;-87
2023/01/03 17:07:28;;;;;;;22.60;9.75;;;;;;;;;;6303312;22;20018;-87
2023/01/03 17:10:30;;;;;;;16.42;8.48;;;7.20;99.90;;;;;;6304403;22;20149;-87
2023/01/03 17:13:25;;;;;;;18.10;9.27;;;;;;;;;;6301966;22;20133;-90
2023/01/03 17:16:18;;;;;;;10.27;7.40;;;7.30;99.90;;;;;;6305043;22;20440;-88
2023/01/03 17:19:03;;;;;;;16.55;7.97;;;;;;;;;;6307827;22;20050;-86